Time;durP1;ratioP1;P1;durP2;ratioP2;P2;SDS_P1;SDS_P2;PMS_P1;PMS_P2;Temp;Humidity;BMP_temperature;BMP_pressure;BME280_temperature;BME280_humidity;BME280_pressure;Samples;Min_cycle;Max_cycle;Signal;HPM_P1;HPM_P2
2022/07/10 00:01:15;;;;;;;2.67;1.52;;;;;;;25.76;35.23;98304.34;5011827;28;20397;-71
2022/07/10 00:03:44;;;;;;;5.40;1.52;;;;;;;25.75;35.16;98305.41;5012891;28;20108;-70
2022/07/10 00:06:09;;;;;;;;;;;;;;;25.76;35.16;98310.53;5027875;28;20034;-70
2022/07/10 00:08:35;;;;;;;1.95;1.48;;;;;;;25.70;35.40;98302.63;5011439;28;19996;-70
2022/07/10 00:11:00;;;;;;;3.45;1.40;;;;;;;25.74;35.39;98309.94;5028169;28;20037;-71
2022/07/10 00:13:26;;;;;;;2.95;1.60;;;;;;;25.70;35.66;98302.63;5011396;28;20026;-70
2022/07/10 00:15:51;;;;;;;2.90;1.70;;;;;;;25.71;35.58;98306.91;5027862;28;20465;-71
2022/07/10 00:18:17;;;;;;;2.55;1.65;;;;;;;25.73;35.71;98313.66;5028024;28;20038;-70
2022/07/10 00:20:42;;;;;;;2.17;1.75;;;;;;;25.71;35.78;98314.91;5011355;28;20437;-70
2022/07/10 00:23:08;;;;;;;2.05;1.50;;;;;;;25.66;35.94;98307.56;5012328;28;20038;-70
2022/07/10 00:25:33;;;;;;;2.75;1.80;;;;;;;25.66;35.84;98306.78;5027730;28;20505;-70
2022/07/10 00:27:59;;;;;;;5.03;1.75;;;;;;;25.66;35.71;98304.09;5011260;28;20108;-70
2022/07/10 00:30:25;;;;;;;2.15;1.63;;;;;;;25.63;35.94;98302.69;5011607;28;20065;-71
2022/07/10 00:32:50;;;;;;;2.83;1.50;;;;;;;25.60;36.04;98303.13;5011596;28;20081;-70
2022/07/10 00:35:15;;;;;;;3.05;1.52;;;;;;;25.58;35.92;98302.53;5012572;28;20466;-70
2022/07/10 00:37:41;;;;;;;2.20;1.60;;;;;;;25.56;35.66;98297.41;5027890;28;20038;-70
2022/07/10 00:40:07;;;;;;;5.38;1.88;;;;;;;25.53;35.89;98305.88;5011227;28;20026;-71
2022/07/10 00:42:33;;;;;;;2.35;1.60;;;;;;;25.41;36.19;98297.00;5011057;28;20030;-70
2022/07/10 00:44:58;;;;;;;3.67;1.90;;;;;;;25.35;36.17;98289.88;5011823;28;20120;-70
2022/07/10 00:47:24;;;;;;;2.53;1.73;;;;;;;25.37;36.30;98306.50;5015128;28;20124;-71
2022/07/10 00:49:49;;;;;;;2.90;1.83;;;;;;;25.34;36.43;98309.63;5015273;28;20096;-70
2022/07/10 00:52:16;;;;;;;2.53;1.60;;;;;;;25.32;36.39;98314.34;5016152;28;20470;-70
2022/07/10 00:54:43;;;;;;;4.55;1.88;;;;;;;25.26;36.81;98300.81;5031185;28;20471;-70
2022/07/10 00:57:08;;;;;;;2.47;1.60;;;;;;;25.32;36.64;98298.31;5031044;28;20037;-70
2022/07/10 00:59:35;;;;;;;3.78;1.73;;;;;;;25.27;36.86;98299.78;5015311;28;20034;-70
2022/07/10 01:02:04;;;;;;;2.80;1.95;;;;;;;25.25;36.99;98296.53;5014352;28;20540;-70
2022/07/10 01:04:29;;;;;;;4.35;1.98;;;;;;;25.27;36.90;98299.78;5030797;28;20401;-71
2022/07/10 01:06:55;;;;;;;5.57;1.88;;;;;;;25.26;37.22;98300.03;5014610;28;20030;-70
2022/07/10 01:09:20;;;;;;;2.78;1.63;;;;;;;25.24;37.09;98294.09;5015202;28;20041;-70
2022/07/10 01:11:46;;;;;;;4.93;1.83;;;;;;;25.24;37.09;98296.75;5015497;28;20072;-71
2022/07/10 01:14:11;;;;;;;2.35;1.75;;;;;;;25.21;37.13;98299.88;5015722;28;20453;-71
2022/07/10 01:16:37;;;;;;;2.33;1.63;;;;;;;25.13;37.24;98289.47;5014329;28;20034;-70
2022/07/10 01:19:02;;;;;;;7.65;2.08;;;;;;;25.15;37.10;98290.88;5030944;28;20069;-71
2022/07/10 01:21:35;;;;;;;2.92;2.00;;;;;;;25.15;37.20;98284.75;5014340;28;20083;-71
2022/07/10 01:24:07;;;;;;;3.95;1.80;;;;;;;25.15;37.43;98285.53;4998478;28;20052;-70
2022/07/10 01:26:33;;;;;;;3.45;2.00;;;;;;;25.12;37.34;98287.84;5014420;28;20038;-71
2022/07/10 01:28:58;;;;;;;2.30;1.80;;;;;;;25.08;37.36;98280.28;5030568;28;20034;-71
2022/07/10 01:31:27;;;;;;;4.80;2.08;;;;;;;25.10;37.64;98277.41;5015393;28;20057;-71
2022/07/10 01:33:54;;;;;;;3.22;2.08;;;;;;;25.08;38.12;98274.94;5030727;28;20034;-71
2022/07/10 01:36:22;;;;;;;3.30;2.15;;;;;;;25.05;37.98;98280.72;4997746;28;20030;-71
2022/07/10 01:38:51;;;;;;;3.38;2.00;;;;;;;25.07;38.14;98281.31;5029840;28;20096;-71
2022/07/10 01:41:16;;;;;;;2.72;1.90;;;;;;;25.08;38.09;98280.28;5013886;28;20029;-70
2022/07/10 01:43:44;;;;;;;2.83;1.90;;;;;;;25.12;37.96;98277.16;5014131;28;20041;-71
2022/07/10 01:46:10;;;;;;;;;;;;;;;25.13;38.20;98278.78;5030400;28;20032;-71
2022/07/10 01:48:36;;;;;;;4.85;2.30;;;;;;;25.08;38.21;98282.97;5030315;28;19917;-71
2022/07/10 01:51:02;;;;;;;2.30;1.92;;;;;;;25.09;38.20;98283.75;5013655;28;20029;-71
2022/07/10 01:53:27;;;;;;;3.95;2.30;;;;;;;25.06;38.29;98278.88;5013937;28;20489;-71
2022/07/10 01:55:53;;;;;;;4.45;2.30;;;;;;;25.06;38.58;98281.53;5014577;28;20115;-71
2022/07/10 01:58:18;;;;;;;2.75;2.22;;;;;;;25.04;38.36;98276.41;5014779;28;20030;-71
2022/07/10 02:00:44;;;;;;;3.28;2.10;;;;;;;25.06;38.49;98285.03;5014117;28;20054;-71
2022/07/10 02:05:54;;;;;;;2.63;2.17;;;;;;;25.07;38.73;98281.31;5013814;28;20064;-71
2022/07/10 02:08:19;;;;;;;3.30;2.30;;;;;;;25.04;38.71;98262.25;5014752;28;20025;-70
2022/07/10 02:10:45;;;;;;;4.85;2.35;;;;;;;25.08;38.89;98269.59;5030361;28;20068;-70
2022/07/10 02:13:14;;;;;;;3.67;2.00;;;;;;;25.03;38.78;98271.28;5013745;28;20080;-70
2022/07/10 02:15:40;;;;;;;7.07;2.30;;;;;;;25.00;38.84;98253.88;5014675;28;20469;-70
2022/07/10 02:18:06;;;;;;;3.20;2.22;;;;;;;24.97;39.01;98259.66;5029774;28;20026;-70
2022/07/10 02:20:33;;;;;;;2.60;2.08;;;;;;;24.98;38.92;98266.63;5013592;28;20448;-70
2022/07/10 02:22:58;;;;;;;3.25;2.05;;;;;;;24.97;39.07;98248.16;5013295;28;20069;-70
2022/07/10 02:25:24;;;;;;;2.95;2.00;;;;;;;24.97;38.80;98251.66;5013216;28;20073;-70
2022/07/10 02:27:49;;;;;;;2.72;1.90;;;;;;;24.99;38.90;98244.22;5013082;28;20413;-70
2022/07/10 02:30:15;;;;;;;3.22;2.30;;;;;;;24.98;38.98;98255.13;5029569;28;20124;-70
2022/07/10 02:32:40;;;;;;;5.97;2.28;;;;;;;24.98;39.14;98247.94;5029393;28;20038;-70
2022/07/10 02:35:06;;;;;;;3.70;2.00;;;;;;;24.98;39.14;98244.47;5012974;28;20038;-71
2022/07/10 02:37:32;;;;;;;3.35;2.00;;;;;;;24.91;39.43;98242.66;5014125;28;20529;-70
2022/07/10 02:39:57;;;;;;;3.67;2.50;;;;;;;24.91;39.22;98247.19;4997072;28;20038;-70
2022/07/10 02:42:22;;;;;;;2.40;2.20;;;;;;;24.92;39.25;98246.16;5012746;28;20473;-70
2022/07/10 02:44:48;;;;;;;5.00;2.50;;;;;;;24.90;39.28;98249.03;5013973;28;20034;-70
2022/07/10 02:47:13;;;;;;;3.05;2.50;;;;;;;24.92;39.17;98256.81;5029713;28;20117;-72
2022/07/10 02:49:39;;;;;;;3.65;2.30;;;;;;;24.89;39.22;98255.44;5029156;28;20037;-70
2022/07/10 02:52:04;;;;;;;2.65;2.20;;;;;;;24.93;39.25;98264.59;5028942;28;20034;-70
2022/07/10 02:54:30;;;;;;;3.85;2.30;;;;;;;24.89;39.02;98258.09;5029224;28;20390;-70
2022/07/10 02:56:56;;;;;;;4.65;2.03;;;;;;;24.94;39.32;98265.44;5013759;28;20374;-70
2022/07/10 02:59:21;;;;;;;2.70;2.13;;;;;;;24.87;39.64;98265.50;5012492;28;20061;-70
2022/07/10 03:01:46;;;;;;;2.88;2.28;;;;;;;24.80;39.61;98259.44;5012493;28;20053;-70
2022/07/10 03:04:12;;;;;;;3.08;2.20;;;;;;;24.81;39.65;98263.72;5028964;28;20048;-70
2022/07/10 03:06:38;;;;;;;5.00;2.33;;;;;;;24.87;39.38;98270.03;5029136;28;20034;-70
2022/07/10 03:09:03;;;;;;;4.32;2.13;;;;;;;24.87;39.57;98272.69;5011707;28;20061;-70
2022/07/10 03:11:29;;;;;;;3.25;2.30;;;;;;;24.92;39.57;98272.84;4995886;28;20144;-70
2022/07/10 03:13:54;;;;;;;3.20;2.10;;;;;;;24.89;39.45;98267.94;5013576;28;20030;-70
2022/07/10 03:16:20;;;;;;;2.75;2.00;;;;;;;24.93;39.70;98266.47;5012115;28;20029;-70
2022/07/10 03:18:45;;;;;;;3.42;2.10;;;;;;;24.98;39.45;98269.28;5028587;28;20401;-63
2022/07/10 03:21:11;;;;;;;3.58;2.28;;;;;;;25.03;39.36;98263.28;5013604;28;20041;-64
2022/07/10 03:23:39;;;;;;;3.08;2.00;;;;;;;25.03;39.22;98265.97;5013506;28;20029;-64
2022/07/10 03:26:04;;;;;;;5.38;2.38;;;;;;;25.10;39.14;98264.03;5013479;28;20038;-64
2022/07/10 03:28:30;;;;;;;3.00;2.05;;;;;;;25.20;38.82;98277.69;5013429;28;20153;-64
2022/07/10 03:30:56;;;;;;;3.13;2.28;;;;;;;25.26;38.78;98276.78;5013191;28;20045;-66
2022/07/10 03:33:21;;;;;;;5.28;2.05;;;;;;;25.54;38.36;98269.28;5013213;28;20099;-65
2022/07/10 03:35:47;;;;;;;4.28;2.25;;;;;;;25.86;37.33;98261.88;5012983;28;20037;-65
2022/07/10 03:38:12;;;;;;;3.03;2.00;;;;;;;26.17;36.89;98274.19;5013188;28;20413;-65
2022/07/10 03:40:38;;;;;;;2.70;2.05;;;;;;;26.45;36.34;98282.59;5013059;28;20386;-64
2022/07/10 03:43:04;;;;;;;3.60;2.20;;;;;;;26.62;35.97;98280.06;5012989;28;20083;-64
2022/07/10 03:45:29;;;;;;;7.85;2.35;;;;;;;26.37;36.35;98273.06;5012919;28;20414;-65
2022/07/10 03:47:55;;;;;;;4.10;2.00;;;;;;;26.30;36.50;98291.91;5012948;28;20080;-64
2022/07/10 03:50:20;;;;;;;8.68;2.25;;;;;;;26.22;36.57;98286.88;5013403;28;20041;-65
2022/07/10 03:52:46;;;;;;;4.13;2.22;;;;;;;26.20;36.95;98291.63;5012891;28;20540;-65
2022/07/10 03:55:12;;;;;;;7.75;2.25;;;;;;;26.17;37.26;98289.41;5012705;28;20026;-65
2022/07/10 03:57:56;;;;;;;2.20;2.00;;;;;;;26.15;37.44;98291.50;5012536;28;20061;-65
2022/07/10 04:00:25;;;;;;;3.72;2.13;;;;;;;26.15;37.06;98283.47;5012629;28;20032;-65
2022/07/10 04:02:56;;;;;;;4.65;2.50;;;;;;;26.17;36.97;98287.56;5011370;28;20408;-65
2022/07/10 04:05:21;;;;;;;14.50;2.20;;;;;;;26.27;37.77;98284.31;5003859;28;20631;-67
2022/07/10 04:07:47;;;;;;;12.88;2.53;;;;;;;26.43;37.66;98288.19;5002208;28;20116;-68
2022/07/10 04:10:12;;;;;;;16.55;2.58;;;;;;;26.54;37.37;98302.63;4999044;28;20109;-68
2022/07/10 04:12:38;;;;;;;9.65;2.22;;;;;;;26.56;37.13;98292.50;5001586;28;20053;-68
2022/07/10 04:15:04;;;;;;;5.50;2.30;;;;;;;26.56;37.58;98297.84;5001619;28;20038;-68
2022/07/10 04:17:32;;;;;;;8.80;2.17;;;;;;;26.52;37.65;98294.03;5000017;28;20030;-67
2022/07/10 04:20:00;;;;;;;3.70;2.40;;;;;;;26.52;37.33;98302.06;5001570;28;20053;-68
2022/07/10 04:22:27;;;;;;;4.45;2.20;;;;;;;26.58;36.93;98302.97;5002155;28;20032;-68
2022/07/10 04:24:53;;;;;;;3.97;2.40;;;;;;;26.78;36.89;98305.34;4999873;28;20042;-68
2022/07/10 04:27:18;;;;;;;9.43;2.50;;;;;;;27.38;36.03;98299.72;5001356;28;20048;-75
2022/07/10 04:29:44;;;;;;;3.75;2.25;;;;;;;27.89;34.65;98289.16;5021511;28;20485;-67
2022/07/10 04:32:09;;;;;;;7.65;2.20;;;;;;;28.25;34.34;98297.03;5008373;28;20030;-69
2022/07/10 04:34:35;;;;;;;4.93;2.40;;;;;;;28.25;33.93;98294.38;5009522;28;20045;-68
2022/07/10 04:37:00;;;;;;;9.07;2.30;;;;;;;28.09;34.57;98299.47;4971498;28;20457;-68
2022/07/10 04:39:26;;;;;;;6.32;2.10;;;;;;;27.97;34.51;98302.22;5004289;28;20037;-70
2022/07/10 04:41:52;;;;;;;5.32;2.28;;;;;;;27.93;34.40;98310.97;5007622;28;20045;-67
2022/07/10 04:44:18;;;;;;;3.50;2.10;;;;;;;27.94;34.34;98312.56;5007365;28;20025;-69
2022/07/10 04:46:43;;;;;;;3.47;2.25;;;;;;;28.63;33.40;98309.75;5011453;28;20025;-67
2022/07/10 04:49:09;;;;;;;5.20;2.20;;;;;;;30.35;30.76;98315.09;4994391;28;20101;-68
2022/07/10 04:51:35;;;;;;;3.13;2.00;;;;;;;31.30;29.71;98314.41;4985836;28;20037;-68
2022/07/10 04:54:00;;;;;;;4.95;2.20;;;;;;;32.31;27.91;98310.63;5000632;28;20445;-70
2022/07/10 04:56:26;;;;;;;4.30;2.10;;;;;;;33.88;25.93;98312.44;4997989;28;20030;-68
2022/07/10 04:58:52;;;;;;;8.43;2.00;;;;;;;35.41;23.43;98311.34;5011949;28;20044;-68
2022/07/10 05:01:17;;;;;;;10.20;2.35;;;;;;;36.61;22.16;98306.63;5004493;28;20112;-67
2022/07/10 05:03:43;;;;;;;4.03;1.90;;;;;;;37.71;20.26;98310.53;5015459;28;20064;-68
2022/07/10 05:06:08;;;;;;;3.90;1.90;;;;;;;38.72;19.69;98309.19;4998028;28;20414;-68
2022/07/10 05:08:34;;;;;;;6.20;1.70;;;;;;;39.64;18.40;98309.69;5000702;28;20034;-69
2022/07/10 05:10:59;;;;;;;2.90;1.40;;;;;;;40.41;17.55;98304.53;5014952;28;20058;-71
2022/07/10 05:13:25;;;;;;;5.25;1.65;;;;;;;41.17;16.82;98303.78;4981665;28;20097;-67
2022/07/10 05:15:51;;;;;;;3.78;1.48;;;;;;;41.74;16.31;98307.97;5000067;28;20029;-67
2022/07/10 05:18:16;;;;;;;4.20;1.67;;;;;;;42.53;15.72;98309.22;5014569;28;20081;-67
2022/07/10 05:20:43;;;;;;;4.60;1.70;;;;;;;43.15;14.97;98307.38;4998690;28;20038;-67
2022/07/10 05:23:09;;;;;;;5.13;1.48;;;;;;;43.73;14.44;98307.97;5000472;28;20473;-67
2022/07/10 05:25:37;;;;;;;2.03;1.20;;;;;;;44.25;14.10;98316.53;4998037;28;20038;-67
2022/07/10 05:28:06;;;;;;;2.88;1.30;;;;;;;44.54;13.70;98311.78;4982760;28;20048;-67
2022/07/10 05:30:31;;;;;;;4.38;1.33;;;;;;;44.39;13.77;98307.84;5019799;28;20390;-68
2022/07/10 05:32:57;;;;;;;4.30;1.20;;;;;;;44.14;14.36;98312.66;5007236;28;20037;-68
2022/07/10 05:35:22;;;;;;;4.37;1.30;;;;;;;44.66;13.40;98314.47;5018752;28;20774;-67
2022/07/10 05:37:48;;;;;;;4.63;1.33;;;;;;;45.04;12.91;98310.34;5001417;28;20410;-67
2022/07/10 05:40:13;;;;;;;1.80;1.10;;;;;;;45.26;13.10;98306.13;5002918;28;20453;-67
2022/07/10 05:42:39;;;;;;;3.13;1.13;;;;;;;45.60;12.47;98300.97;5002978;28;20022;-66
2022/07/10 05:45:05;;;;;;;1.60;1.00;;;;;;;45.74;12.30;98305.16;4985584;28;20053;-68
2022/07/10 05:47:31;;;;;;;4.60;1.23;;;;;;;45.74;12.67;98303.22;5003241;28;20018;-68
2022/07/10 05:49:56;;;;;;;2.63;1.07;;;;;;;46.21;12.42;98305.00;4993663;28;20412;-67
2022/07/10 05:52:22;;;;;;;2.53;1.10;;;;;;;45.93;12.38;98304.41;5013271;28;20327;-66
2022/07/10 05:54:47;;;;;;;4.20;1.20;;;;;;;45.99;12.07;98314.78;4995976;28;20045;-67
2022/07/10 05:57:13;;;;;;;2.47;1.20;;;;;;;45.04;13.12;98315.84;4995912;28;20041;-67
2022/07/10 05:59:38;;;;;;;2.77;1.27;;;;;;;43.42;14.01;98308.63;5012038;28;20091;-67
2022/07/10 06:02:04;;;;;;;3.37;1.17;;;;;;;43.07;14.30;98311.06;5011774;28;20069;-67
2022/07/10 06:04:30;;;;;;;3.10;1.20;;;;;;;42.48;15.03;98313.00;5028160;28;20105;-66
2022/07/10 06:06:55;;;;;;;2.30;1.05;;;;;;;41.86;15.20;98315.47;5012908;28;20128;-67
2022/07/10 06:09:21;;;;;;;2.47;1.10;;;;;;;40.47;16.54;98311.44;5012066;28;20045;-67
2022/07/10 06:11:48;;;;;;;4.22;1.30;;;;;;;39.66;17.69;98315.63;5027850;28;20038;-67
2022/07/10 06:14:13;;;;;;;5.85;1.30;;;;;;;39.12;18.18;98315.81;5013039;28;20022;-66
2022/07/10 06:16:39;;;;;;;3.85;1.40;;;;;;;38.39;18.92;98319.56;5011822;28;20117;-67
2022/07/10 06:19:04;;;;;;;3.10;1.50;;;;;;;37.91;19.33;98320.97;4997810;28;20419;-68
2022/07/10 06:21:30;;;;;;;2.55;1.42;;;;;;;37.27;20.09;98323.66;5008163;28;20034;-68
2022/07/10 06:23:55;;;;;;;5.53;1.52;;;;;;;37.12;20.23;98314.66;5015236;28;20129;-68
2022/07/10 06:26:21;;;;;;;3.55;1.35;;;;;;;38.00;19.73;98318.28;4999287;28;20061;-67
2022/07/10 06:28:46;;;;;;;2.75;1.50;;;;;;;37.79;19.86;98312.50;5030856;28;20045;-68
2022/07/10 06:31:12;;;;;;;7.20;1.52;;;;;;;37.20;20.29;98309.66;5031052;28;20061;-68
2022/07/10 06:33:38;;;;;;;4.15;1.42;;;;;;;36.83;20.79;98312.25;5011691;28;20113;-68
2022/07/10 06:36:04;;;;;;;4.50;1.38;;;;;;;36.81;20.92;98316.38;4995479;28;20050;-66
2022/07/10 06:38:29;;;;;;;2.97;1.20;;;;;;;36.63;21.26;98320.75;5030238;28;20034;-68
2022/07/10 06:40:54;;;;;;;3.63;1.40;;;;;;;36.44;21.38;98318.88;4994441;28;20501;-66
2022/07/10 06:43:20;;;;;;;2.92;1.10;;;;;;;36.25;21.56;98323.53;5002865;28;20041;-67
2022/07/10 06:45:45;;;;;;;2.08;1.38;;;;;;;36.51;21.00;98316.56;5016294;28;20029;-67
2022/07/10 06:48:11;;;;;;;2.97;1.27;;;;;;;36.72;20.94;98317.03;5027399;28;20477;-67
2022/07/10 06:50:36;;;;;;;4.20;1.50;;;;;;;36.54;21.08;98317.91;5027147;28;20022;-67
2022/07/10 06:53:02;;;;;;;4.53;1.40;;;;;;;36.26;21.31;98319.72;5010641;28;20079;-68
2022/07/10 06:55:28;;;;;;;2.85;1.50;;;;;;;35.90;21.91;98329.19;5011206;28;20034;-67
2022/07/10 06:57:54;;;;;;;11.18;1.80;;;;;;;35.55;23.34;98325.03;4994801;28;20034;-67
2022/07/10 07:00:19;;;;;;;18.13;2.17;;;;;;;35.22;23.53;98320.25;5011153;28;20049;-70
2022/07/10 07:02:45;;;;;;;8.45;1.90;;;;;;;35.09;23.96;98324.47;5011640;28;20132;-66
2022/07/10 07:05:11;;;;;;;10.95;1.92;;;;;;;34.78;24.64;98319.34;5011148;28;20018;-68
2022/07/10 07:07:36;;;;;;;16.15;2.15;;;;;;;34.59;25.47;98321.94;5027973;28;20038;-66
2022/07/10 07:10:03;;;;;;;6.68;1.80;;;;;;;34.45;25.89;98326.41;5011606;28;20462;-69
2022/07/10 07:12:28;;;;;;;6.03;2.00;;;;;;;34.30;27.51;98315.69;5027631;28;20700;-70
2022/07/10 07:14:54;;;;;;;16.05;2.40;;;;;;;34.28;30.93;98318.69;5011730;28;20022;-70
2022/07/10 07:17:23;;;;;;;6.03;2.53;;;;;;;34.30;36.71;98321.94;5001953;28;20069;-71
2022/07/10 07:25:17;;;;;;;7.60;2.70;;;;;;;35.09;40.56;98315.50;5001210;28;20065;-68
2022/07/10 07:27:43;;;;;;;11.52;2.60;;;;;;;34.87;42.77;98330.41;4999173;28;20030;-69
2022/07/10 07:30:12;;;;;;;18.80;2.80;;;;;;;35.07;41.24;98331.25;5002020;28;20049;-71
2022/07/10 07:32:38;;;;;;;11.35;3.30;;;;;;;35.18;42.86;98326.53;5000027;28;20518;-69
2022/07/10 07:35:04;;;;;;;16.23;4.10;;;;;;;35.37;41.07;98337.47;4982917;28;20058;-66
2022/07/10 07:37:40;;;;;;;18.88;4.88;;;;;;;35.88;41.34;98325.94;5001693;28;20028;-67
2022/07/10 07:40:07;;;;;;;17.83;4.57;;;;;;;35.86;39.25;98325.44;5001074;28;20035;-67
2022/07/10 07:42:33;;;;;;;18.55;2.00;;;;;;;35.93;28.76;98331.34;5000060;28;20022;-67
2022/07/10 07:44:58;;;;;;;3.97;1.80;;;;;;;35.86;29.33;98323.53;5001455;28;20526;-66
2022/07/10 07:47:24;;;;;;;4.35;2.60;;;;;;;35.77;27.88;98319.06;4999755;28;20027;-65
2022/07/10 07:49:50;;;;;;;8.65;2.03;;;;;;;35.81;27.49;98320.91;5000216;28;20408;-65
2022/07/10 07:52:15;;;;;;;6.32;2.55;;;;;;;35.75;28.64;98326.66;5000527;28;20053;-67
2022/07/10 07:54:41;;;;;;;5.97;2.80;;;;;;;35.68;30.43;98332.47;4982660;28;20072;-67
2022/07/10 07:57:06;;;;;;;5.45;2.70;;;;;;;35.71;30.42;98328.34;5016593;28;20045;-66
2022/07/10 07:59:32;;;;;;;6.53;3.30;;;;;;;35.76;31.05;98323.69;5015425;28;20034;-69
2022/07/10 08:01:57;;;;;;;8.50;2.00;;;;;;;35.65;25.98;98324.91;4982968;28;20151;-65
2022/07/10 08:04:23;;;;;;;9.07;3.20;;;;;;;35.41;25.97;98333.88;5000340;28;20030;-66
2022/07/10 08:06:51;;;;;;;7.00;2.10;;;;;;;35.10;26.70;98330.69;4999298;28;20046;-65
2022/07/10 08:09:18;;;;;;;6.80;1.80;;;;;;;34.81;26.53;98325.28;5000149;28;20056;-63
2022/07/10 08:11:43;;;;;;;6.32;1.90;;;;;;;34.60;26.18;98318.16;5001726;28;20048;-64
2022/07/10 08:14:09;;;;;;;4.75;1.63;;;;;;;34.51;24.99;98329.91;5014741;28;20034;-66
2022/07/10 08:16:34;;;;;;;2.70;1.52;;;;;;;34.16;24.56;98324.44;4983471;28;20046;-64
2022/07/10 08:19:00;;;;;;;4.72;1.60;;;;;;;33.91;24.53;98319.22;5016206;28;20069;-66
2022/07/10 08:21:26;;;;;;;5.45;1.60;;;;;;;33.72;24.66;98322.56;4982025;28;20041;-66
2022/07/10 08:23:53;;;;;;;3.85;1.70;;;;;;;33.58;24.52;98311.50;4999659;28;20050;-66
2022/07/10 08:26:19;;;;;;;2.40;1.42;;;;;;;33.49;25.10;98315.84;5016161;28;20041;-64
2022/07/10 08:28:44;;;;;;;3.28;1.75;;;;;;;33.40;24.87;98315.63;4998271;28;20026;-68
2022/07/10 08:31:10;;;;;;;5.65;1.80;;;;;;;32.89;25.74;98313.06;4983955;28;20026;-65
2022/07/10 08:33:35;;;;;;;4.22;1.80;;;;;;;32.79;26.15;98313.88;4999314;28;20034;-66
2022/07/10 08:36:01;;;;;;;3.28;1.75;;;;;;;32.89;26.32;98307.66;4982204;28;20038;-65
2022/07/10 08:38:26;;;;;;;6.10;2.15;;;;;;;33.03;26.08;98302.50;5000460;28;20029;-64
2022/07/10 08:40:52;;;;;;;4.15;2.28;;;;;;;33.39;25.70;98305.91;5015245;28;20460;-64
2022/07/10 08:43:18;;;;;;;6.80;2.10;;;;;;;33.84;25.53;98314.91;4982603;28;20239;-64
2022/07/10 08:45:43;;;;;;;5.55;2.25;;;;;;;33.61;25.45;98316.34;5016509;28;20033;-67
2022/07/10 08:48:09;;;;;;;5.85;2.63;;;;;;;33.60;26.21;98305.81;5013890;28;20029;-75
2022/07/10 08:50:38;;;;;;;3.28;1.90;;;;;;;33.63;25.45;98319.56;4999617;28;20034;-70
2022/07/10 08:53:12;;;;;;;2.65;1.77;;;;;;;33.84;25.80;98320.31;4984702;28;20046;-79
2022/07/10 08:55:39;;;;;;;9.55;2.17;;;;;;;34.11;25.98;98310.94;5003912;28;20121;-82
2022/07/10 08:58:04;;;;;;;3.15;1.90;;;;;;;34.24;25.12;98317.66;5023361;28;20115;-73
2022/07/10 09:00:30;;;;;;;4.05;1.65;;;;;;;34.24;25.41;98317.66;4983356;28;20034;-80
2022/07/10 09:02:56;;;;;;;5.05;1.88;;;;;;;34.16;24.80;98313.59;4985851;28;20402;-74
2022/07/10 09:05:23;;;;;;;3.33;1.50;;;;;;;34.00;24.88;98317.50;4987109;28;20034;-69
2022/07/10 09:07:49;;;;;;;3.92;1.65;;;;;;;34.18;25.73;98318.75;4989096;28;20136;-74
2022/07/10 09:10:14;;;;;;;12.13;2.20;;;;;;;34.34;25.72;98319.47;4986809;28;20144;-70
2022/07/10 09:12:58;;;;;;;4.50;1.80;;;;;;;34.56;24.48;98325.22;5003223;28;20026;-75
2022/07/10 09:15:32;;;;;;;6.13;1.77;;;;;;;34.49;24.77;98327.47;5022744;28;20041;-77
2022/07/10 09:18:01;;;;;;;7.78;1.55;;;;;;;34.48;24.69;98322.34;5000885;28;20592;-77
2022/07/10 09:20:29;;;;;;;5.35;1.60;;;;;;;34.67;23.24;98325.94;5019809;28;20026;-77
2022/07/10 09:22:58;;;;;;;3.45;1.50;;;;;;;34.93;22.73;98314.88;5014374;28;20057;-78
2022/07/10 09:25:34;;;;;;;3.30;1.48;;;;;;;34.96;22.88;98315.13;4992380;28;20025;-71
2022/07/10 09:28:05;;;;;;;2.03;1.33;;;;;;;35.44;22.85;98318.91;5004106;28;20041;-71
2022/07/10 09:30:35;;;;;;;8.88;1.75;;;;;;;35.64;22.28;98315.13;4970768;28;20030;-70
2022/07/10 09:33:19;;;;;;;3.63;1.48;;;;;;;35.28;23.25;98310.97;4969300;28;20037;-75
2022/07/10 09:36:14;;;;;;;16.70;1.90;;;;;;;35.09;21.93;98312.78;5003172;28;20519;-73
2022/07/10 09:38:41;;;;;;;2.45;1.88;;;;;;;35.08;23.54;98313.91;4982286;28;20034;-69
2022/07/10 09:41:16;;;;;;;;;;;;;;;35.00;23.91;98320.78;4966442;28;20023;-70
2022/07/10 09:43:45;;;;;;;3.30;2.75;;;;;;;34.93;23.83;98314.88;4965785;28;19920;-68
2022/07/10 09:46:11;;;;;;;5.10;2.90;;;;;;;34.76;23.73;98324.25;4966935;28;20065;-69
2022/07/10 09:48:36;;;;;;;5.07;2.20;;;;;;;34.40;24.13;98318.31;4965170;28;20046;-67
2022/07/10 09:51:03;;;;;;;8.50;1.90;;;;;;;34.28;23.83;98326.00;4966085;28;20062;-74
2022/07/10 09:53:29;;;;;;;10.90;2.67;;;;;;;34.25;24.39;98327.38;4966930;28;20141;-73
2022/07/10 09:55:55;;;;;;;4.68;2.42;;;;;;;34.15;24.39;98327.44;4948876;28;20062;-74
2022/07/10 09:58:20;;;;;;;4.97;2.20;;;;;;;34.09;24.15;98329.34;4949639;28;20035;-71
2022/07/10 10:00:46;;;;;;;3.85;2.45;;;;;;;34.12;24.29;98319.88;4947280;28;20059;-74
2022/07/10 10:03:12;;;;;;;3.63;2.13;;;;;;;34.07;24.35;98321.50;4965432;28;20513;-72
2022/07/10 10:06:00;;;;;;;8.10;2.70;;;;;;;34.17;24.49;98315.19;4933347;28;20041;-71
2022/07/10 10:08:28;;;;;;;4.32;2.10;;;;;;;34.22;23.78;98309.78;4966176;28;20047;-71
2022/07/10 10:10:56;;;;;;;2.95;1.80;;;;;;;34.29;24.24;98312.19;4949394;28;20058;-70
2022/07/10 10:13:28;;;;;;;5.30;1.67;;;;;;;34.32;24.42;98308.91;4963730;28;20030;-75
2022/07/10 10:15:54;;;;;;;4.53;1.90;;;;;;;34.42;23.42;98303.38;4984332;28;20143;-69
2022/07/10 10:18:24;;;;;;;3.25;1.50;;;;;;;34.47;23.52;98309.88;4968409;28;20117;-71
2022/07/10 10:20:51;;;;;;;6.75;2.22;;;;;;;34.48;23.98;98308.78;4969278;28;20026;-77
2022/07/10 10:23:22;;;;;;;6.32;1.50;;;;;;;34.39;23.60;98306.66;5018965;28;20037;-82
2022/07/10 10:25:57;;;;;;;4.88;1.90;;;;;;;34.37;23.88;98313.47;5001903;28;20416;-70
2022/07/10 10:28:26;;;;;;;2.63;1.75;;;;;;;34.31;23.38;98312.69;5018951;28;20022;-74
2022/07/10 10:30:57;;;;;;;5.15;1.73;;;;;;;34.15;23.60;98305.75;5001260;28;20034;-76
2022/07/10 10:33:31;;;;;;;3.70;2.00;;;;;;;34.15;23.59;98311.97;4968741;28;20054;-76
2022/07/10 10:35:57;;;;;;;4.78;1.77;;;;;;;34.13;23.49;98307.91;5005145;28;20176;-76
2022/07/10 10:38:22;;;;;;;8.25;1.98;;;;;;;34.15;23.96;98308.47;5003423;28;20474;-75
2022/07/10 10:40:48;;;;;;;5.18;1.50;;;;;;;34.14;24.12;98312.25;4969589;28;20080;-78
2022/07/10 10:43:17;;;;;;;3.17;1.50;;;;;;;34.08;24.32;98304.19;5014781;28;20108;-77
2022/07/10 10:45:44;;;;;;;3.25;1.50;;;;;;;34.04;23.46;98303.13;5001506;28;20045;-75
2022/07/10 10:48:11;;;;;;;3.80;1.98;;;;;;;33.96;24.07;98298.31;4969216;28;20596;-74
2022/07/10 10:50:43;;;;;;;;;;;;;;;33.94;24.86;98297.78;5007381;28;20030;-72
2022/07/10 10:53:26;;;;;;;5.60;1.83;;;;;;;33.97;24.79;98299.09;5007485;28;19937;-75
2022/07/10 10:56:15;;;;;;;7.10;2.40;;;;;;;34.02;24.72;98296.38;5005382;28;20030;-79
2022/07/10 10:58:42;;;;;;;7.63;1.73;;;;;;;34.02;24.25;98294.47;5000479;28;20580;-72
2022/07/10 11:01:25;;;;;;;18.40;2.13;;;;;;;33.93;24.20;98292.66;5002879;28;20071;-74
2022/07/10 11:04:12;;;;;;;3.67;1.55;;;;;;;33.95;24.19;98298.59;5017479;28;20026;-72
2022/07/10 11:06:44;;;;;;;6.65;1.60;;;;;;;34.05;24.63;98299.31;5000523;28;20018;-73
2022/07/10 11:09:28;;;;;;;10.45;1.70;;;;;;;33.95;24.60;98293.97;5000101;28;20516;-71
2022/07/10 11:12:01;;;;;;;3.70;1.60;;;;;;;34.02;24.06;98293.66;5017174;28;20026;-72
2022/07/10 11:14:28;;;;;;;6.40;1.70;;;;;;;34.06;24.55;98294.72;4969808;28;20059;-72
2022/07/10 11:16:54;;;;;;;4.50;1.50;;;;;;;34.09;24.23;98291.44;5002496;28;20029;-71
2022/07/10 11:19:25;;;;;;;2.75;1.63;;;;;;;34.25;24.70;98281.31;4969555;28;20492;-72
2022/07/10 11:22:06;;;;;;;3.35;1.60;;;;;;;34.18;24.42;98267.28;4968687;28;20125;-72
2022/07/10 11:24:50;;;;;;;8.32;1.98;;;;;;;34.17;23.49;98268.38;5000111;28;20022;-72
2022/07/10 11:27:27;;;;;;;4.15;1.70;;;;;;;34.15;23.66;98262.44;5014386;28;20117;-70
2022/07/10 11:29:59;;;;;;;5.07;1.87;;;;;;;33.81;23.92;98257.78;5015678;28;20032;-72
2022/07/10 11:32:25;;;;;;;3.95;2.10;;;;;;;33.65;24.40;98257.06;4982874;28;20026;-70
2022/07/10 11:34:50;;;;;;;3.45;2.53;;;;;;;33.45;25.31;98271.53;4981128;28;20484;-71
2022/07/10 11:37:16;;;;;;;4.32;2.70;;;;;;;33.25;25.60;98267.00;4991551;28;20026;-71
2022/07/10 11:39:42;;;;;;;3.85;2.60;;;;;;;33.11;25.84;98282.97;5007416;28;20047;-71
2022/07/10 11:42:07;;;;;;;6.38;3.50;;;;;;;32.78;26.31;98279.81;5011916;28;20418;-71